Date,TemperatureHighF,TemperatureAvgF,TemperatureLowF,DewpointHighF,DewpointAvgF,DewpointLowF,HumidityHigh,HumidityAvg,HumidityLow,PressureMaxIn,PressureMinIn,WindSpeedMaxMPH,WindSpeedAvgMPH,GustSpeedMaxMPH,PrecipitationSumIn
2013-3-1,49.9,40.9,32.6,32.4,29.7,27.5,84,65,46,29.91,29.83,9,1,11,0.00
2013-3-2,51.7,39.2,29.9,29.9,26.9,20.8,86,63,40,29.92,29.80,11,1,11,0.00
2013-3-3,49.9,36.6,29.2,24.6,21.2,17.3,71,54,36,29.97,29.83,8,1,9,0.00
2013-3-4,50.1,37.1,27.4,23.5,17.7,14.7,64,47,26,30.11,29.97,9,1,10,0.00
2013-3-5,50.6,42.6,35.4,43.8,34.6,19.8,96,75,44,30.09,29.57,8,1,9,0.34
2013-3-6,45.8,41.5,36.5,44.1,34.5,28.4,98,77,57,30.01,29.49,14,2,17,0.00
2013-3-7,50.5,41.9,33.4,33.2,30.5,27.2,85,65,48,30.22,30.01,11,1,12,0.00
2013-3-8,55.7,43.5,31.9,29.8,27.4,25.2,79,55,33,30.27,30.14,16,1,16,0.00
2013-3-9,63.0,46.8,33.2,33.6,30.0,26.8,78,55,29,30.33,30.22,10,1,13,0.00
2013-3-10,65.9,51.1,35.5,33.5,28.4,21.1,80,47,19,30.32,30.20,7,1,8,0.00
2013-3-11,70.4,56.0,41.9,53.8,44.8,28.6,90,67,42,30.24,29.94,11,2,13,0.00
2013-3-12,72.3,61.7,49.4,63.5,54.9,36.9,97,80,52,29.94,29.73,13,2,14,0.37
2013-3-13,57.6,47.1,35.5,37.2,29.4,21.0,87,53,30,30.11,29.92,13,1,14,0.00
2013-3-14,38.4,35.8,33.8,22.0,20.1,18.3,54,53,51,30.16,30.11,9,1,9,0.00
2013-3-15,61.9,51.7,29.2,36.8,32.3,21.3,77,48,34,30.17,29.89,5,1,10,0.00
2013-3-16,77.8,63.9,52.8,51.9,45.6,36.1,69,52,37,29.89,29.62,10,2,13,0.00
2013-3-17,61.5,51.4,39.9,52.8,45.5,37.4,96,80,69,30.17,29.80,14,3,16,0.00
2013-3-18,42.7,39.9,37.3,41.6,38.8,36.0,97,96,93,30.20,29.86,11,2,11,0.29
2013-3-19,68.3,52.0,40.4,47.4,34.9,11.4,98,63,20,30.00,29.81,7,1,9,0.00
2013-3-20,56.2,46.5,37.5,27.2,18.8,12.8,59,34,21,30.11,29.77,7,1,7,0.00
2013-3-21,44.7,43.2,41.6,31.7,27.5,25.0,61,54,50,29.77,29.72,3,0,3,0.00
2013-3-22,51.6,38.8,25.9,24.5,17.4,13.3,65,44,22,30.08,29.96,2,1,10,0.00
2013-3-23,55.6,45.7,38.4,34.0,27.3,21.9,72,50,32,30.05,29.90,5,0,6,0.00
2013-3-24,42.1,38.6,36.1,37.6,34.6,30.4,95,86,67,29.93,29.56,16,2,17,0.67
2013-3-25,48.6,40.7,35.3,37.5,31.2,23.9,95,72,42,29.80,29.55,11,1,12,0.00
2013-3-26,50.1,42.8,34.4,31.1,28.1,24.5,73,56,44,30.09,29.80,8,1,9,0.00
2013-3-27,55.3,42.9,34.7,28.1,25.9,22.1,75,53,32,30.21,30.09,15,1,15,0.00
2013-3-28,59.2,44.8,32.4,28.5,26.3,23.5,75,51,29,30.28,30.13,11,1,13,0.00
2013-3-29,62.7,46.5,32.6,31.9,28.3,25.7,79,52,27,30.33,30.17,11,1,12,0.00
2013-3-30,70.2,53.6,41.4,44.7,34.9,27.4,71,52,27,30.24,30.07,7,1,7,0.00
2013-3-31,67.9,56.6,47.8,57.6,51.2,42.9,97,83,68,30.09,29.78,9,1,9,0.43